Time;durP1;ratioP1;P1;durP2;ratioP2;P2;SDS_P1;SDS_P2;PMS_P1;PMS_P2;Temp;Humidity;BMP_temperature;BMP_pressure;BME280_temperature;BME280_humidity;BME280_pressure;Samples;Min_cycle;Max_cycle;Signal;HPM_P1;HPM_P2
2023/01/29 00:01:17;;;;;;;0.47;0.47;;;1.30;99.90;;;;;;5051941;28;20037;-79
2023/01/29 00:03:43;;;;;;;0.20;0.20;;;1.30;99.90;;;;;;5053561;28;20060;-79
2023/01/29 00:06:09;;;;;;;1.45;1.10;;;1.50;99.90;;;;;;5052806;28;20064;-78
2023/01/29 00:08:36;;;;;;;0.45;0.45;;;1.20;99.90;;;;;;5053350;28;20044;-79
2023/01/29 00:11:06;;;;;;;2.40;2.20;;;1.00;99.90;;;;;;5052890;28;20100;-79
2023/01/29 00:13:33;;;;;;;0.28;0.28;;;1.00;99.90;;;;;;5054248;28;20075;-79
2023/01/29 00:15:59;;;;;;;2.05;1.92;;;1.20;99.90;;;;;;5053038;28;20020;-79
2023/01/29 00:18:26;;;;;;;0.52;0.52;;;1.10;99.90;;;;;;5052683;28;20423;-75
2023/01/29 00:20:52;;;;;;;0.10;0.10;;;0.90;99.90;;;;;;5053065;28;20078;-79
2023/01/29 00:23:18;;;;;;;1.67;1.58;;;1.00;99.90;;;;;;5053009;28;20036;-79
2023/01/29 00:25:44;;;;;;;0.35;0.35;;;1.00;99.90;;;;;;5052861;28;20120;-79
2023/01/29 00:28:11;;;;;;;1.73;1.23;;;1.10;99.90;;;;;;5051508;28;20144;-79
2023/01/29 00:30:37;;;;;;;0.17;0.17;;;1.20;99.90;;;;;;5052957;28;20151;-77
2023/01/29 00:33:03;;;;;;;0.10;0.10;;;1.20;99.90;;;;;;5054868;28;20035;-80
2023/01/29 00:35:30;;;;;;;0.10;0.10;;;1.40;99.90;;;;;;5053482;28;20116;-79
2023/01/29 00:37:57;;;;;;;0.10;0.10;;;1.40;99.90;;;;;;5052732;28;20487;-79
2023/01/29 00:40:23;;;;;;;0.45;0.45;;;1.30;99.90;;;;;;5052637;28;20455;-79
2023/01/29 00:45:37;;;;;;;2.25;2.08;;;1.10;99.90;;;;;;5052344;28;20032;-79
2023/01/29 00:48:05;;;;;;;0.22;0.22;;;0.90;99.90;;;;;;5052581;28;20039;-79
2023/01/29 00:50:31;;;;;;;1.48;1.38;;;0.90;99.90;;;;;;5053028;28;20033;-80
2023/01/29 00:52:57;;;;;;;3.70;2.80;;;1.00;99.90;;;;;;5053194;28;20096;-79
2023/01/29 00:55:23;;;;;;;2.50;2.22;;;0.90;99.90;;;;;;5052536;28;20134;-79
2023/01/29 00:57:49;;;;;;;0.10;0.10;;;1.00;99.90;;;;;;5051537;28;20121;-80
2023/01/29 01:00:17;;;;;;;8.85;3.10;;;0.90;99.90;;;;;;5053815;28;20388;-80
2023/01/29 01:05:28;;;;;;;0.10;0.10;;;0.80;99.90;;;;;;5054832;28;20045;-80
2023/01/29 01:07:56;;;;;;;0.43;0.43;;;0.90;99.90;;;;;;5054852;28;20021;-80
2023/01/29 01:10:25;;;;;;;1.08;1.08;;;1.00;99.90;;;;;;5054644;28;20037;-80
2023/01/29 01:13:03;;;;;;;5.18;4.57;;;1.00;99.90;;;;;;5055003;28;20036;-79
2023/01/29 01:15:38;;;;;;;11.75;1.80;;;1.00;99.90;;;;;;5055115;28;20028;-80
2023/01/29 01:18:04;;;;;;;0.50;0.50;;;0.90;99.90;;;;;;5054934;28;20064;-79
2023/01/29 01:20:32;;;;;;;1.85;1.75;;;0.90;99.90;;;;;;5054666;28;20075;-79
2023/01/29 01:22:58;;;;;;;3.92;1.25;;;0.90;99.90;;;;;;5056058;28;20437;-79
2023/01/29 01:25:25;;;;;;;7.95;2.17;;;1.10;99.90;;;;;;5037800;28;20128;-80
2023/01/29 01:27:53;;;;;;;2.45;1.45;;;0.90;99.90;;;;;;5057000;28;20052;-79
2023/01/29 01:30:19;;;;;;;3.55;1.70;;;0.70;99.90;;;;;;5056846;28;20489;-79
2023/01/29 01:32:44;;;;;;;0.20;0.20;;;0.70;99.90;;;;;;5054492;28;20032;-79
2023/01/29 01:35:12;;;;;;;2.38;1.95;;;0.90;99.90;;;;;;5054782;28;20070;-79
2023/01/29 01:37:38;;;;;;;4.63;4.18;;;0.70;99.90;;;;;;5054803;28;20029;-79
2023/01/29 01:40:11;;;;;;;1.75;0.93;;;0.70;99.90;;;;;;5054490;28;20499;-79
2023/01/29 01:42:40;;;;;;;1.92;1.70;;;0.60;99.90;;;;;;5054318;28;20037;-79
2023/01/29 01:45:16;;;;;;;8.60;3.28;;;0.60;99.90;;;;;;5055242;28;20029;-79
2023/01/29 01:47:46;;;;;;;3.20;2.35;;;0.70;99.90;;;;;;5053637;28;20087;-80
2023/01/29 01:50:19;;;;;;;6.72;1.88;;;0.70;99.90;;;;;;5053910;28;20059;-80
2023/01/29 01:52:51;;;;;;;0.47;0.47;;;1.00;99.90;;;;;;5055447;28;20048;-79
2023/01/29 01:55:20;;;;;;;9.73;4.30;;;1.20;99.90;;;;;;5053654;28;20029;-79
2023/01/29 01:57:49;;;;;;;2.83;2.55;;;1.20;99.90;;;;;;5054366;28;20083;-80
2023/01/29 02:00:19;;;;;;;0.17;0.17;;;1.20;99.90;;;;;;5053817;28;20040;-80
2023/01/29 02:11:27;;;;;;;0.10;0.10;;;1.60;99.90;;;;;;5051223;28;20034;-79
2023/01/29 02:13:53;;;;;;;4.05;2.78;;;1.80;99.90;;;;;;5055181;28;20032;-80
2023/01/29 02:16:24;;;;;;;3.92;3.63;;;1.70;99.90;;;;;;5056691;28;20029;-79
2023/01/29 02:18:50;;;;;;;1.83;1.70;;;1.40;99.90;;;;;;5056728;28;20060;-79
2023/01/29 02:21:40;;;;;;;3.20;2.45;;;1.30;99.90;;;;;;5056515;28;20028;-79
2023/01/29 02:24:40;;;;;;;7.43;3.50;;;1.30;99.90;;;;;;5043164;28;20412;-79
2023/01/29 02:27:13;;;;;;;2.72;1.45;;;1.20;99.90;;;;;;5054895;28;20397;-79
2023/01/29 02:29:54;;;;;;;1.73;1.55;;;1.40;99.90;;;;;;5054992;28;20519;-79
2023/01/29 02:32:33;;;;;;;1.17;1.17;;;1.40;99.90;;;;;;5054592;28;20413;-79
2023/01/29 02:38:16;;;;;;;0.90;0.90;;;1.80;99.90;;;;;;5053972;28;20534;-79
2023/01/29 02:40:56;;;;;;;1.45;1.35;;;2.00;99.90;;;;;;5052654;28;20025;-79
2023/01/29 02:43:25;;;;;;;0.90;0.90;;;1.90;99.90;;;;;;5054311;28;20064;-79
2023/01/29 02:46:28;;;;;;;0.10;0.10;;;2.20;99.90;;;;;;5054356;28;20132;-79
2023/01/29 02:49:23;;;;;;;1.15;1.10;;;2.20;99.90;;;;;;5053314;28;20082;-80
2023/01/29 02:51:55;;;;;;;1.55;1.27;;;2.00;99.90;;;;;;5052455;28;20047;-79
2023/01/29 02:54:23;;;;;;;0.10;0.10;;;2.10;99.90;;;;;;5055881;28;20025;-79
2023/01/29 02:57:03;;;;;;;7.13;1.35;;;2.10;99.90;;;;;;5053524;28;20514;-79
2023/01/29 02:59:41;;;;;;;1.95;1.83;;;2.10;99.90;;;;;;5066902;28;20592;-79
2023/01/29 03:02:15;;;;;;;1.15;1.08;;;1.90;99.90;;;;;;5045077;28;20032;-80
2023/01/29 03:04:46;;;;;;;0.10;0.10;;;1.90;99.90;;;;;;5054964;28;20388;-76
2023/01/29 03:10:08;;;;;;;6.32;4.90;;;1.60;99.90;;;;;;5053439;28;20029;-79
2023/01/29 03:12:39;;;;;;;6.15;2.58;;;1.60;99.90;;;;;;5053161;28;20033;-79
2023/01/29 03:15:15;;;;;;;3.50;2.38;;;1.60;99.90;;;;;;5053281;28;20072;-79
2023/01/29 03:18:06;;;;;;;4.20;2.83;;;1.50;99.90;;;;;;5053446;28;20052;-79
2023/01/29 03:20:37;;;;;;;20.73;6.57;;;1.40;99.90;;;;;;5053490;28;20025;-79
2023/01/29 03:23:13;;;;;;;13.85;6.65;;;1.40;99.90;;;;;;5052930;28;20031;-79
2023/01/29 03:34:37;;;;;;;11.55;5.13;;;1.80;99.90;;;;;;5052225;28;20049;-79
2023/01/29 03:37:39;;;;;;;5.65;3.67;;;1.70;99.90;;;;;;5051630;28;20029;-79
2023/01/29 03:40:07;;;;;;;6.57;3.40;;;1.80;99.90;;;;;;5031529;28;20095;-79
2023/01/29 03:42:42;;;;;;;0.22;0.22;;;1.70;99.90;;;;;;5042607;28;20481;-79
2023/01/29 03:45:30;;;;;;;14.63;4.15;;;1.60;99.90;;;;;;5053144;28;20051;-79
2023/01/29 03:48:11;;;;;;;0.30;0.30;;;1.80;99.90;;;;;;5051628;28;20038;-80
2023/01/29 03:51:01;;;;;;;29.60;10.13;;;1.70;99.90;;;;;;5035611;28;20026;-79
2023/01/29 03:53:42;;;;;;;4.18;3.03;;;1.50;99.90;;;;;;5048509;28;20032;-79
2023/01/29 03:56:19;;;;;;;5.38;2.78;;;1.40;99.90;;;;;;5051873;28;20033;-79
2023/01/29 03:59:26;;;;;;;11.85;6.18;;;1.60;99.90;;;;;;5051711;28;20366;-79
2023/01/29 04:02:30;;;;;;;10.00;6.88;;;1.30;99.90;;;;;;5047177;28;20044;-79
2023/01/29 04:05:08;;;;;;;10.40;5.50;;;1.60;99.90;;;;;;5052623;28;20029;-78
2023/01/29 04:07:42;;;;;;;;;;;1.50;99.90;;;;;;5038886;28;20029;-79
2023/01/29 04:10:21;;;;;;;13.02;3.53;;;1.50;99.90;;;;;;5051979;28;19912;-79
2023/01/29 04:13:00;;;;;;;14.45;7.63;;;1.40;99.90;;;;;;5035999;28;20460;-79
2023/01/29 04:15:30;;;;;;;15.98;6.03;;;1.30;99.90;;;;;;5053855;28;20021;-79
2023/01/29 04:17:56;;;;;;;31.65;15.00;;;1.40;99.90;;;;;;5035029;28;20029;-79
2023/01/29 04:20:40;;;;;;;3.53;2.10;;;1.30;99.90;;;;;;5052557;28;20095;-79
2023/01/29 04:23:18;;;;;;;27.45;12.75;;;1.40;99.90;;;;;;5051401;28;20120;-79
2023/01/29 04:25:51;;;;;;;2.60;2.38;;;1.50;99.90;;;;;;5051532;28;20037;-79
2023/01/29 04:28:27;;;;;;;22.33;12.00;;;1.40;99.90;;;;;;5051652;28;20056;-79
2023/01/29 04:30:58;;;;;;;7.55;5.72;;;1.40;99.90;;;;;;5051254;28;20021;-79
2023/01/29 04:33:51;;;;;;;5.63;3.83;;;1.40;99.90;;;;;;5051505;28;20428;-79
2023/01/29 04:36:34;;;;;;;12.60;7.22;;;1.50;99.90;;;;;;5053905;28;20014;-79
2023/01/29 04:39:19;;;;;;;28.38;10.23;;;1.50;99.90;;;;;;5056798;28;20041;-79
2023/01/29 04:41:51;;;;;;;9.52;4.65;;;1.40;99.90;;;;;;5042742;28;20029;-78
2023/01/29 04:44:43;;;;;;;9.73;2.92;;;1.50;99.90;;;;;;5056455;28;20477;-79
2023/01/29 04:47:22;;;;;;;;;;;1.50;99.90;;;;;;5046437;28;20028;-79
2023/01/29 04:50:11;;;;;;;2.60;1.48;;;1.60;99.90;;;;;;5056217;28;20203;-79
2023/01/29 04:52:37;;;;;;;5.78;4.13;;;1.80;99.90;;;;;;5055857;28;20175;-79
2023/01/29 04:55:14;;;;;;;13.32;9.38;;;1.80;99.90;;;;;;5056315;28;20477;-78
2023/01/29 04:57:39;;;;;;;17.30;8.23;;;1.70;99.90;;;;;;5056435;28;20037;-79
2023/01/29 05:00:31;;;;;;;2.28;1.80;;;1.70;99.90;;;;;;5057201;28;20025;-78
2023/01/29 05:02:59;;;;;;;0.73;0.73;;;1.80;99.90;;;;;;5056897;28;20037;-79
2023/01/29 05:05:26;;;;;;;6.63;3.58;;;1.80;99.90;;;;;;5057543;28;20059;-79
2023/01/29 05:07:54;;;;;;;4.30;3.15;;;1.70;99.90;;;;;;5056924;28;20036;-79
2023/01/29 05:10:22;;;;;;;3.50;2.42;;;1.90;99.90;;;;;;5055919;28;20064;-79
2023/01/29 05:12:53;;;;;;;0.80;0.65;;;1.90;99.90;;;;;;5055833;28;20025;-79
2023/01/29 05:15:24;;;;;;;5.75;4.32;;;2.20;99.90;;;;;;5056050;28;20519;-79
2023/01/29 05:17:52;;;;;;;4.05;0.95;;;1.90;99.90;;;;;;5055714;28;20033;-79
2023/01/29 05:20:19;;;;;;;6.95;2.10;;;1.70;99.90;;;;;;5056035;28;20025;-79
2023/01/29 05:22:47;;;;;;;0.45;0.45;;;1.90;99.90;;;;;;5054316;28;20477;-79
2023/01/29 05:25:38;;;;;;;11.45;7.72;;;1.90;99.90;;;;;;5055612;28;20083;-79
2023/01/29 05:28:05;;;;;;;5.53;4.50;;;1.80;99.90;;;;;;5055190;28;20381;-79
2023/01/29 05:30:33;;;;;;;3.42;1.08;;;1.70;99.90;;;;;;5055561;28;20083;-79
2023/01/29 05:32:59;;;;;;;2.67;2.17;;;1.70;99.90;;;;;;5054902;28;20025;-79
2023/01/29 05:35:25;;;;;;;11.77;4.72;;;2.00;99.90;;;;;;5055555;28;20079;-79
2023/01/29 05:37:50;;;;;;;0.73;0.73;;;2.00;99.90;;;;;;5054958;28;20090;-79
2023/01/29 05:40:16;;;;;;;1.45;0.60;;;2.00;99.90;;;;;;5055313;28;20409;-79
2023/01/29 05:42:42;;;;;;;12.95;1.17;;;2.10;99.90;;;;;;5053781;28;20024;-79
2023/01/29 05:45:08;;;;;;;15.77;6.40;;;2.30;99.90;;;;;;5054970;28;20036;-79
2023/01/29 05:47:34;;;;;;;5.78;4.45;;;2.30;99.90;;;;;;5053741;28;20388;-79
2023/01/29 05:50:00;;;;;;;2.63;1.95;;;2.30;99.90;;;;;;5055030;28;20041;-78
2023/01/29 05:52:25;;;;;;;2.50;1.05;;;2.10;99.90;;;;;;5054000;28;20111;-79
2023/01/29 05:54:51;;;;;;;2.03;1.83;;;2.30;99.90;;;;;;5055202;28;20021;-78
2023/01/29 05:57:17;;;;;;;4.38;2.92;;;2.20;99.90;;;;;;5055204;28;20036;-78
2023/01/29 05:59:42;;;;;;;0.20;0.20;;;2.30;99.90;;;;;;5054933;28;20009;-79
2023/01/29 06:02:08;;;;;;;1.98;1.83;;;2.20;99.90;;;;;;5054777;28;20052;-79
2023/01/29 06:04:34;;;;;;;3.80;2.25;;;2.10;99.90;;;;;;5054935;28;20029;-79
2023/01/29 06:07:02;;;;;;;5.78;1.98;;;2.40;99.90;;;;;;5054890;28;20040;-79
2023/01/29 06:09:28;;;;;;;1.17;1.17;;;2.40;99.90;;;;;;5054698;28;20040;-79
2023/01/29 06:11:53;;;;;;;7.43;3.58;;;2.40;99.90;;;;;;5054849;28;20025;-79
2023/01/29 06:14:19;;;;;;;12.70;5.88;;;2.20;99.90;;;;;;5054560;28;20035;-79
2023/01/29 06:16:45;;;;;;;8.02;5.07;;;2.00;99.90;;;;;;5054694;28;20432;-79
2023/01/29 06:19:11;;;;;;;10.77;7.30;;;1.90;99.90;;;;;;5055193;28;20045;-79
2023/01/29 06:21:37;;;;;;;3.35;2.72;;;2.00;99.90;;;;;;5055556;28;20029;-79
2023/01/29 06:24:03;;;;;;;8.75;5.57;;;1.90;99.90;;;;;;5053599;28;20722;-79
2023/01/29 06:26:29;;;;;;;7.85;4.38;;;2.00;99.90;;;;;;5055827;28;20076;-78
2023/01/29 06:28:55;;;;;;;5.32;1.10;;;1.90;99.90;;;;;;5054704;28;20065;-79
2023/01/29 06:31:22;;;;;;;1.17;1.05;;;2.10;99.90;;;;;;5054114;28;20079;-79
2023/01/29 06:33:47;;;;;;;6.82;3.95;;;2.20;99.90;;;;;;5054903;28;20025;-78
2023/01/29 06:36:13;;;;;;;16.50;5.57;;;2.30;99.90;;;;;;5054037;28;20496;-79
2023/01/29 06:38:39;;;;;;;7.45;6.05;;;2.10;99.90;;;;;;5054278;28;20033;-79
2023/01/29 06:41:12;;;;;;;20.17;9.80;;;2.00;99.90;;;;;;5054116;28;20111;-79
2023/01/29 06:43:38;;;;;;;2.50;2.38;;;1.90;99.90;;;;;;5054485;28;20021;-79
2023/01/29 06:46:06;;;;;;;14.38;8.65;;;1.90;99.90;;;;;;5052626;28;20041;-79
2023/01/29 06:48:32;;;;;;;2.20;2.08;;;1.80;99.90;;;;;;5054462;28;20522;-79
2023/01/29 06:51:02;;;;;;;28.38;13.30;;;1.90;99.90;;;;;;5054071;28;20033;-79
2023/01/29 06:53:27;;;;;;;12.90;4.70;;;1.90;99.90;;;;;;5055287;28;20048;-78
2023/01/29 06:55:53;;;;;;;1.70;1.55;;;2.00;99.90;;;;;;5053962;28;20147;-79
2023/01/29 06:58:20;;;;;;;3.50;2.95;;;2.20;99.90;;;;;;5053398;28;20035;-78
2023/01/29 07:00:46;;;;;;;24.83;10.45;;;2.30;99.90;;;;;;5053662;28;20108;-79
2023/01/29 07:03:12;;;;;;;9.90;4.63;;;2.20;99.90;;;;;;5053620;28;20461;-80
2023/01/29 07:05:38;;;;;;;15.35;7.90;;;2.30;99.90;;;;;;5053475;28;20025;-79
2023/01/29 07:08:04;;;;;;;7.28;5.82;;;2.30;99.90;;;;;;5052361;28;20096;-79
2023/01/29 07:10:29;;;;;;;14.23;6.25;;;2.30;99.90;;;;;;5053242;28;20037;-77
2023/01/29 07:12:57;;;;;;;11.15;5.35;;;2.00;99.90;;;;;;5053760;28;20025;-79
2023/01/29 07:15:23;;;;;;;16.15;7.60;;;2.00;99.90;;;;;;5053021;28;20033;-78
2023/01/29 07:18:11;;;;;;;9.13;3.60;;;2.00;99.90;;;;;;5052910;28;20029;-79
2023/01/29 07:20:38;;;;;;;16.00;7.75;;;2.10;99.90;;;;;;5052980;28;20064;-80
2023/01/29 07:23:05;;;;;;;2.92;2.72;;;2.10;99.90;;;;;;5053323;28;20078;-79
2023/01/29 07:25:32;;;;;;;3.38;2.65;;;2.10;99.90;;;;;;5053051;28;20507;-79
2023/01/29 07:27:59;;;;;;;15.75;8.15;;;2.00;99.90;;;;;;5053323;28;20147;-78
2023/01/29 07:30:25;;;;;;;10.98;4.05;;;1.90;99.90;;;;;;5052104;28;20116;-78
2023/01/29 07:32:51;;;;;;;9.30;4.28;;;2.10;99.90;;;;;;5053041;28;20112;-79
2023/01/29 07:35:17;;;;;;;8.07;4.47;;;2.30;99.90;;;;;;5053164;28;20040;-76
2023/01/29 07:37:42;;;;;;;6.93;6.22;;;2.30;99.90;;;;;;5052559;28;20021;-76
2023/01/29 07:40:12;;;;;;;14.73;6.72;;;2.10;99.90;;;;;;5052873;28;20354;-79
2023/01/29 07:42:38;;;;;;;14.25;7.32;;;2.00;99.90;;;;;;5046456;28;20488;-78
2023/01/29 07:45:05;;;;;;;16.25;7.10;;;2.00;99.90;;;;;;5050031;28;20098;-78
2023/01/29 07:47:31;;;;;;;11.13;4.65;;;2.10;99.90;;;;;;5041409;28;20815;-78
2023/01/29 07:49:57;;;;;;;4.65;1.83;;;2.10;99.90;;;;;;5046960;28;20036;-78
2023/01/29 07:52:23;;;;;;;19.92;7.82;;;2.20;99.90;;;;;;5051841;28;20013;-77
2023/01/29 07:54:48;;;;;;;14.80;3.65;;;2.20;99.90;;;;;;5049820;28;20029;-78
2023/01/29 07:57:14;;;;;;;7.80;4.55;;;2.30;99.90;;;;;;5049035;28;20036;-76
2023/01/29 07:59:40;;;;;;;13.82;7.32;;;2.30;99.90;;;;;;5048745;28;20074;-78
2023/01/29 08:02:07;;;;;;;8.98;5.80;;;2.40;99.90;;;;;;5055318;28;20033;-78
2023/01/29 08:04:33;;;;;;;2.95;2.75;;;2.40;99.90;;;;;;5044850;28;20037;-77
2023/01/29 08:06:58;;;;;;;6.88;4.53;;;2.30;99.90;;;;;;5047396;28;20033;-78
2023/01/29 08:09:24;;;;;;;14.93;8.70;;;2.40;99.90;;;;;;5039270;28;20039;-78
2023/01/29 08:11:50;;;;;;;8.20;4.18;;;2.30;99.90;;;;;;5046192;28;20033;-77
2023/01/29 08:14:16;;;;;;;3.80;2.88;;;2.40;99.90;;;;;;5044330;28;20079;-78
2023/01/29 08:16:41;;;;;;;1.90;1.45;;;2.50;99.90;;;;;;5061213;28;20032;-78
2023/01/29 08:19:07;;;;;;;9.63;4.78;;;2.50;99.90;;;;;;5050549;28;20104;-78
2023/01/29 08:21:33;;;;;;;12.07;7.00;;;2.50;99.90;;;;;;5048292;28;20116;-78
2023/01/29 08:23:59;;;;;;;1.83;1.70;;;2.70;99.90;;;;;;5046480;28;20021;-75
2023/01/29 08:26:26;;;;;;;6.63;3.03;;;2.60;99.90;;;;;;5052460;28;20470;-78
2023/01/29 08:28:52;;;;;;;11.93;6.88;;;2.30;99.90;;;;;;5039231;28;20440;-78
2023/01/29 08:31:21;;;;;;;29.15;12.05;;;2.30;99.90;;;;;;5046686;28;20059;-74
2023/01/29 08:33:48;;;;;;;16.80;7.70;;;2.20;99.90;;;;;;5050322;28;20059;-77
2023/01/29 08:36:14;;;;;;;18.40;10.27;;;2.40;99.90;;;;;;5050197;28;20021;-77
2023/01/29 08:38:39;;;;;;;4.78;1.83;;;2.20;99.90;;;;;;5047732;28;20082;-76
2023/01/29 08:41:06;;;;;;;18.90;8.93;;;2.20;99.90;;;;;;5045541;28;20040;-76
2023/01/29 08:43:34;;;;;;;6.00;3.45;;;2.30;99.90;;;;;;5048711;28;20488;-77
2023/01/29 08:45:59;;;;;;;4.97;2.78;;;2.50;99.90;;;;;;5049110;28;20059;-77
2023/01/29 08:48:25;;;;;;;9.93;4.72;;;2.50;99.90;;;;;;5049913;28;20064;-78
2023/01/29 08:50:51;;;;;;;19.38;9.50;;;2.70;99.90;;;;;;5048058;28;20017;-76
2023/01/29 08:53:18;;;;;;;26.92;11.88;;;2.60;99.90;;;;;;5049094;28;20111;-77
2023/01/29 08:55:45;;;;;;;12.90;6.57;;;2.50;99.90;;;;;;5048157;28;20021;-77
2023/01/29 08:58:11;;;;;;;22.42;8.82;;;2.70;99.90;;;;;;5049983;28;20033;-76
2023/01/29 09:00:37;;;;;;;6.30;3.53;;;2.60;99.90;;;;;;5052747;28;20020;-78
2023/01/29 09:03:03;;;;;;;4.70;3.92;;;2.50;99.90;;;;;;5061085;28;20472;-77
2023/01/29 09:05:30;;;;;;;27.40;11.25;;;2.50;99.90;;;;;;5053366;28;20025;-75
2023/01/29 09:07:56;;;;;;;7.57;3.72;;;2.50;99.90;;;;;;5043154;28;20048;-77
2023/01/29 09:10:22;;;;;;;14.23;8.07;;;2.60;99.90;;;;;;5047430;28;20033;-76
2023/01/29 09:12:48;;;;;;;0.75;0.75;;;2.60;99.90;;;;;;5048212;28;20040;-74
2023/01/29 09:15:14;;;;;;;10.20;5.90;;;2.60;99.90;;;;;;5045209;28;20029;-76
2023/01/29 09:17:40;;;;;;;9.93;3.65;;;2.50;99.90;;;;;;5044747;28;20017;-75
2023/01/29 09:20:06;;;;;;;4.65;2.13;;;2.70;99.90;;;;;;5038598;28;20134;-77
2023/01/29 09:22:33;;;;;;;21.77;9.25;;;2.70;99.90;;;;;;5045052;28;20036;-76
2023/01/29 09:24:58;;;;;;;11.15;6.57;;;2.50;99.90;;;;;;5051684;28;20026;-75
2023/01/29 09:27:24;;;;;;;3.17;1.77;;;2.60;99.90;;;;;;5047803;28;20499;-76
2023/01/29 09:29:50;;;;;;;8.77;6.07;;;2.70;99.90;;;;;;5051520;28;20021;-76
2023/01/29 09:32:16;;;;;;;5.47;3.55;;;2.70;99.90;;;;;;5057119;28;20025;-75
2023/01/29 09:34:41;;;;;;;2.53;2.05;;;2.80;99.90;;;;;;5051768;28;20044;-75
2023/01/29 09:37:07;;;;;;;10.63;5.50;;;3.00;99.90;;;;;;5047484;28;20103;-74
2023/01/29 09:39:33;;;;;;;19.50;8.75;;;3.10;99.90;;;;;;5034614;28;20017;-79
2023/01/29 09:42:42;;;;;;;35.30;12.23;;;3.00;99.90;;;;;;5036987;28;20469;-76
2023/01/29 09:45:08;;;;;;;19.35;8.98;;;2.90;99.90;;;;;;5041092;28;20033;-74
2023/01/29 09:47:35;;;;;;;16.42;9.98;;;3.00;99.90;;;;;;5055979;28;20110;-74
2023/01/29 09:50:15;;;;;;;4.45;2.63;;;2.90;99.90;;;;;;5053487;28;20021;-73
2023/01/29 09:52:52;;;;;;;10.35;6.03;;;2.90;99.90;;;;;;5046283;28;20036;-74
2023/01/29 09:55:36;;;;;;;3.47;1.95;;;2.90;99.90;;;;;;5044150;28;20381;-73
2023/01/29 09:58:24;;;;;;;16.15;7.50;;;3.00;99.90;;;;;;5051977;28;20401;-73
2023/01/29 10:01:07;;;;;;;22.25;10.88;;;3.10;99.90;;;;;;5053738;28;20017;-74
2023/01/29 10:04:04;;;;;;;13.85;7.20;;;3.20;99.90;;;;;;5058639;28;20032;-72
2023/01/29 10:06:42;;;;;;;21.15;10.80;;;3.00;99.90;;;;;;5046992;28;20135;-74
2023/01/29 10:09:08;;;;;;;10.68;6.35;;;3.10;99.90;;;;;;5052066;28;20392;-74
2023/01/29 10:12:07;;;;;;;15.02;6.93;;;3.00;99.90;;;;;;5053306;28;20032;-74
2023/01/29 10:15:05;;;;;;;14.30;4.18;;;3.00;99.90;;;;;;5036624;28;20112;-74
2023/01/29 10:17:52;;;;;;;24.40;8.95;;;3.10;99.90;;;;;;5051511;28;20473;-74
2023/01/29 10:20:33;;;;;;;28.55;11.63;;;3.10;99.90;;;;;;5054681;28;20538;-74
2023/01/29 10:23:24;;;;;;;13.05;8.10;;;3.20;99.90;;;;;;5036256;28;20037;-74
2023/01/29 10:25:52;;;;;;;10.05;8.18;;;3.30;99.90;;;;;;5050095;28;20131;-74
2023/01/29 10:28:33;;;;;;;19.17;8.80;;;3.10;99.90;;;;;;5054573;28;20044;-74
2023/01/29 10:31:15;;;;;;;11.97;5.53;;;3.10;99.90;;;;;;5052651;28;20402;-74
2023/01/29 10:33:50;;;;;;;6.50;4.85;;;3.10;99.90;;;;;;5053335;28;20024;-75
2023/01/29 10:36:25;;;;;;;29.20;12.43;;;3.20;99.90;;;;;;5051479;28;20029;-73
2023/01/29 10:38:51;;;;;;;18.50;11.73;;;3.30;99.90;;;;;;5043111;28;20042;-73
2023/01/29 10:41:46;;;;;;;8.98;4.93;;;3.40;99.90;;;;;;5041873;28;20025;-72
2023/01/29 10:44:28;;;;;;;11.15;6.95;;;3.60;99.90;;;;;;5048581;28;20436;-72
2023/01/29 10:47:19;;;;;;;22.20;8.82;;;3.50;99.90;;;;;;5036114;28;20537;-72
2023/01/29 10:50:04;;;;;;;7.40;2.75;;;3.60;99.90;;;;;;5038645;28;20064;-72
2023/01/29 10:52:57;;;;;;;19.98;8.23;;;3.80;99.90;;;;;;5037507;28;20048;-72
2023/01/29 10:55:50;;;;;;;40.95;12.50;;;3.80;99.90;;;;;;5038028;28;20133;-72
2023/01/29 10:58:43;;;;;;;10.68;5.10;;;3.70;99.90;;;;;;5041723;28;20388;-72
2023/01/29 11:01:10;;;;;;;24.30;10.77;;;3.80;99.90;;;;;;5039957;28;20127;-72
2023/01/29 11:03:36;;;;;;;11.20;7.28;;;3.90;99.90;;;;;;5048566;28;20045;-72
2023/01/29 11:06:24;;;;;;;11.93;7.18;;;4.00;99.90;;;;;;5036493;28;20080;-72
2023/01/29 11:09:12;;;;;;;17.02;8.57;;;4.10;99.90;;;;;;5039583;28;20041;-72
2023/01/29 11:11:56;;;;;;;24.85;10.65;;;4.20;99.90;;;;;;5046393;28;20030;-72
2023/01/29 11:14:30;;;;;;;17.98;7.50;;;4.20;99.90;;;;;;5033580;28;20464;-72
2023/01/29 11:16:56;;;;;;;11.35;5.15;;;4.30;99.90;;;;;;5035786;28;20477;-72
2023/01/29 11:19:39;;;;;;;8.88;5.82;;;4.40;99.90;;;;;;5038226;28;20091;-72
2023/01/29 11:22:10;;;;;;;14.27;8.35;;;4.50;99.90;;;;;;5045220;28;20086;-71
2023/01/29 11:24:36;;;;;;;;;;;4.40;99.90;;;;;;5033836;28;20055;-71
2023/01/29 11:27:14;;;;;;;10.40;5.75;;;4.30;99.90;;;;;;5037792;28;19940;-71
2023/01/29 11:29:47;;;;;;;20.52;8.32;;;4.30;99.90;;;;;;5039167;28;20053;-71
2023/01/29 11:32:19;;;;;;;9.65;6.65;;;4.20;99.90;;;;;;5043326;28;20110;-72
2023/01/29 11:35:00;;;;;;;28.08;13.88;;;4.30;99.90;;;;;;5038862;28;20031;-72
2023/01/29 11:37:35;;;;;;;5.82;4.28;;;4.50;99.90;;;;;;5038609;28;20036;-72
2023/01/29 11:40:21;;;;;;;4.38;3.97;;;4.50;99.90;;;;;;5040230;28;20359;-72
2023/01/29 11:42:48;;;;;;;6.60;3.60;;;4.70;99.90;;;;;;5030711;28;20025;-72
2023/01/29 11:45:33;;;;;;;18.90;10.35;;;4.80;99.90;;;;;;5030915;28;20040;-71
2023/01/29 11:48:00;;;;;;;12.50;5.70;;;4.80;99.90;;;;;;5029961;28;20035;-72
2023/01/29 11:50:28;;;;;;;14.90;7.43;;;4.70;99.90;;;;;;5028802;28;20025;-72
2023/01/29 11:52:55;;;;;;;17.17;8.02;;;4.90;99.90;;;;;;5042948;28;20096;-71
2023/01/29 11:55:26;;;;;;;8.75;7.00;;;4.70;99.90;;;;;;5035397;28;20484;-72
2023/01/29 11:58:16;;;;;;;15.85;9.35;;;4.70;99.90;;;;;;5030753;28;20025;-74
2023/01/29 12:00:48;;;;;;;9.60;5.20;;;4.70;99.90;;;;;;5031061;28;20028;-74
2023/01/29 12:03:21;;;;;;;8.88;5.97;;;4.90;99.90;;;;;;5032473;28;20097;-74
2023/01/29 12:06:00;;;;;;;13.43;6.00;;;4.90;99.90;;;;;;5032263;28;20032;-73
2023/01/29 12:08:36;;;;;;;13.50;6.20;;;5.20;99.90;;;;;;5034521;28;20630;-74
2023/01/29 12:11:15;;;;;;;15.27;8.65;;;5.20;99.90;;;;;;5050370;28;20039;-74
2023/01/29 12:13:42;;;;;;;8.23;5.65;;;5.20;99.90;;;;;;5048993;28;20792;-73
2023/01/29 12:16:29;;;;;;;4.53;4.10;;;5.10;99.90;;;;;;5045994;28;20029;-74
2023/01/29 12:19:23;;;;;;;23.63;11.68;;;5.30;99.90;;;;;;5048514;28;20079;-72
2023/01/29 12:21:59;;;;;;;16.92;8.85;;;5.10;99.90;;;;;;5043958;28;20098;-74
2023/01/29 12:24:28;;;;;;;27.50;14.30;;;5.00;99.90;;;;;;5051635;28;20109;-74
2023/01/29 12:27:11;;;;;;;3.30;2.85;;;4.90;99.90;;;;;;5053266;28;20024;-74
2023/01/29 12:29:51;;;;;;;19.25;10.45;;;5.10;99.90;;;;;;5044866;28;20487;-73
2023/01/29 12:32:35;;;;;;;6.70;3.38;;;4.90;99.90;;;;;;5045794;28;20505;-72
2023/01/29 12:35:21;;;;;;;26.42;8.80;;;4.90;99.90;;;;;;5046503;28;20147;-73
2023/01/29 12:37:55;;;;;;;11.80;6.00;;;5.10;99.90;;;;;;5045271;28;20037;-74
2023/01/29 12:40:25;;;;;;;26.48;12.68;;;5.20;99.90;;;;;;5045218;28;20473;-73
2023/01/29 12:42:57;;;;;;;20.80;10.52;;;5.10;99.90;;;;;;5047178;28;20108;-74
2023/01/29 12:45:27;;;;;;;10.60;6.45;;;5.10;99.90;;;;;;5047011;28;20025;-73
2023/01/29 12:48:00;;;;;;;5.93;4.28;;;4.80;99.90;;;;;;5047048;28;20530;-74
2023/01/29 12:50:35;;;;;;;24.75;11.48;;;4.80;99.90;;;;;;5050092;28;20086;-74
2023/01/29 12:53:32;;;;;;;13.60;7.60;;;4.90;99.90;;;;;;5048911;28;20024;-74
2023/01/29 12:56:10;;;;;;;18.83;10.65;;;4.90;99.90;;;;;;5042022;28;20033;-73
2023/01/29 12:58:56;;;;;;;18.05;11.00;;;5.00;99.90;;;;;;5059269;28;20081;-73
2023/01/29 13:01:32;;;;;;;21.02;7.25;;;5.00;99.90;;;;;;5058296;28;20021;-73
2023/01/29 13:04:05;;;;;;;13.00;8.65;;;4.90;99.90;;;;;;5055686;28;20039;-71
2023/01/29 13:06:49;;;;;;;22.55;10.95;;;4.80;99.90;;;;;;5050059;28;20080;-73
2023/01/29 13:09:22;;;;;;;37.70;11.68;;;4.80;99.90;;;;;;5065844;28;20031;-73
2023/01/29 13:11:59;;;;;;;11.48;6.70;;;4.70;99.90;;;;;;5061298;28;20043;-73
2023/01/29 13:14:39;;;;;;;19.23;8.50;;;4.80;99.90;;;;;;5046007;28;20017;-73
2023/01/29 13:17:31;;;;;;;5.20;2.90;;;4.70;99.90;;;;;;5054745;28;20033;-74
2023/01/29 13:20:03;;;;;;;21.95;11.07;;;4.90;99.90;;;;;;5048690;28;20032;-73
2023/01/29 13:22:34;;;;;;;11.85;7.82;;;4.90;99.90;;;;;;5064525;28;20071;-73
2023/01/29 13:25:00;;;;;;;12.68;6.32;;;4.70;99.90;;;;;;5040535;28;20040;-74
2023/01/29 13:27:29;;;;;;;20.65;9.32;;;4.80;99.90;;;;;;5048563;28;20033;-73
2023/01/29 13:29:56;;;;;;;14.63;7.30;;;4.80;99.90;;;;;;5058264;28;20025;-73
2023/01/29 13:32:25;;;;;;;22.08;8.00;;;4.80;99.90;;;;;;5070157;28;20032;-74
2023/01/29 13:34:54;;;;;;;20.13;10.48;;;4.70;99.90;;;;;;5038875;28;20021;-74
2023/01/29 13:37:40;;;;;;;39.28;13.10;;;4.80;99.90;;;;;;5053449;28;20037;-74
2023/01/29 13:40:07;;;;;;;21.08;9.70;;;4.70;99.90;;;;;;5054998;28;20068;-74
2023/01/29 13:43:00;;;;;;;17.20;7.53;;;4.60;99.90;;;;;;5054095;28;20376;-73
2023/01/29 13:45:42;;;;;;;13.85;8.00;;;4.80;99.90;;;;;;5043791;28;20049;-74
2023/01/29 13:48:24;;;;;;;;;;;4.70;99.90;;;;;;5054026;28;20128;-74
2023/01/29 13:50:51;;;;;;;12.93;5.67;;;4.70;99.90;;;;;;5054995;28;19919;-74